KJST/JST METAR and TAF weather

Enter ICAO airport designator
Station Type Date Time Source
KJST METAR 2022/09/28 19:54 UTC NOAA

KJST 281954Z AUTO 29005KT 10SM SCT017 BKN024 OVC029 11/08 A3026 RMK AO2 SLP256 T01110083


Station Type Date Time Source
KJST Decoded METAR 2022/09/28 19:54 UTC NOAA

JOHNSTOWN-CAMBRIA CO AIRPORT , PA, United States (KJST) 40-19N 078-50W 694M
Sep 28, 2022 - 03:54 PM EDT / 2022.09.28 1954 UTC
Wind: from the WNW (290 degrees) at 6 MPH (5 KT):0
Visibility: 10 mile(s):0
Sky conditions: overcast
Temperature: 52.0 F (11.1 C)
Dew Point: 46.9 F (8.3 C)
Relative Humidity: 82%
Pressure (altimeter): 30.26 in. Hg (1024 hPa)
ob: KJST 281954Z AUTO 29005KT 10SM SCT017 BKN024 OVC029 11/08 A3026 RMK AO2 SLP256 T01110083
cycle: 20

Station Type Date Time Source
KJST TAF 2022/09/28 18:39 UTC NOAA

TAF KJST 281737Z 2818/2918 30008KT P6SM OVC005
FM282000 30008KT P6SM -SHRA BKN010
FM290000 31005KT P6SM BKN015
FM290600 32005KT P6SM OVC005
FM291400 36010G15KT P6SM BKN015

Example: see airport list